sensor_id;sensor_type;location;lat;lon;timestamp;P1;durP1;ratioP1;P2;durP2;ratioP2
35276;SDS011;21401;50.878;8.050;2022-07-19T00:02:23;6.18;;;2.20;;
35276;SDS011;21401;50.878;8.050;2022-07-19T00:04:49;5.18;;;2.00;;
35276;SDS011;21401;50.878;8.050;2022-07-19T00:07:15;4.60;;;2.10;;
35276;SDS011;21401;50.878;8.050;2022-07-19T00:09:40;4.90;;;2.20;;
35276;SDS011;21401;50.878;8.050;2022-07-19T00:12:08;3.30;;;1.83;;
35276;SDS011;21401;50.878;8.050;2022-07-19T00:14:33;3.67;;;2.20;;
35276;SDS011;21401;50.878;8.050;2022-07-19T00:16:59;5.65;;;2.45;;
35276;SDS011;21401;50.878;8.050;2022-07-19T00:19:27;7.75;;;2.25;;
35276;SDS011;21401;50.878;8.050;2022-07-19T00:21:53;2.65;;;1.83;;
35276;SDS011;21401;50.878;8.050;2022-07-19T00:24:18;3.60;;;2.15;;
35276;SDS011;21401;50.878;8.050;2022-07-19T00:26:44;5.70;;;2.58;;
35276;SDS011;21401;50.878;8.050;2022-07-19T00:29:12;6.40;;;2.20;;
35276;SDS011;21401;50.878;8.050;2022-07-19T00:31:38;6.97;;;2.45;;
35276;SDS011;21401;50.878;8.050;2022-07-19T00:34:05;6.68;;;2.08;;
35276;SDS011;21401;50.878;8.050;2022-07-19T00:36:31;6.85;;;2.60;;
35276;SDS011;21401;50.878;8.050;2022-07-19T00:38:56;4.70;;;2.70;;
35276;SDS011;21401;50.878;8.050;2022-07-19T00:41:22;3.85;;;2.05;;
35276;SDS011;21401;50.878;8.050;2022-07-19T00:43:48;4.90;;;2.10;;
35276;SDS011;21401;50.878;8.050;2022-07-19T00:46:16;10.35;;;3.08;;
35276;SDS011;21401;50.878;8.050;2022-07-19T00:48:44;7.22;;;3.08;;
35276;SDS011;21401;50.878;8.050;2022-07-19T00:51:10;5.20;;;2.28;;
35276;SDS011;21401;50.878;8.050;2022-07-19T00:53:36;4.20;;;2.53;;
35276;SDS011;21401;50.878;8.050;2022-07-19T00:56:03;6.28;;;2.65;;
35276;SDS011;21401;50.878;8.050;2022-07-19T00:58:33;3.65;;;2.67;;
35276;SDS011;21401;50.878;8.050;2022-07-19T01:01:00;3.15;;;2.15;;
35276;SDS011;21401;50.878;8.050;2022-07-19T01:03:28;4.57;;;2.55;;
35276;SDS011;21401;50.878;8.050;2022-07-19T01:05:54;5.45;;;2.78;;
35276;SDS011;21401;50.878;8.050;2022-07-19T01:08:20;7.25;;;3.08;;
35276;SDS011;21401;50.878;8.050;2022-07-19T01:10:46;4.88;;;2.80;;
35276;SDS011;21401;50.878;8.050;2022-07-19T01:13:12;6.22;;;2.55;;
35276;SDS011;21401;50.878;8.050;2022-07-19T01:15:41;5.63;;;2.45;;
35276;SDS011;21401;50.878;8.050;2022-07-19T01:18:08;6.57;;;2.85;;
35276;SDS011;21401;50.878;8.050;2022-07-19T01:20:36;4.80;;;2.95;;
35276;SDS011;21401;50.878;8.050;2022-07-19T01:23:04;4.90;;;2.33;;
35276;SDS011;21401;50.878;8.050;2022-07-19T01:25:34;3.38;;;2.10;;
35276;SDS011;21401;50.878;8.050;2022-07-19T01:28:06;3.45;;;1.98;;
35276;SDS011;21401;50.878;8.050;2022-07-19T01:30:32;4.03;;;2.53;;
35276;SDS011;21401;50.878;8.050;2022-07-19T01:33:01;9.75;;;2.40;;
35276;SDS011;21401;50.878;8.050;2022-07-19T01:35:27;5.78;;;2.88;;
35276;SDS011;21401;50.878;8.050;2022-07-19T01:37:54;7.40;;;2.97;;
35276;SDS011;21401;50.878;8.050;2022-07-19T01:40:20;5.63;;;2.17;;
35276;SDS011;21401;50.878;8.050;2022-07-19T01:42:46;4.13;;;2.40;;
35276;SDS011;21401;50.878;8.050;2022-07-19T01:45:18;5.45;;;2.65;;
35276;SDS011;21401;50.878;8.050;2022-07-19T01:47:45;8.40;;;2.42;;
35276;SDS011;21401;50.878;8.050;2022-07-19T01:50:11;5.03;;;2.85;;
35276;SDS011;21401;50.878;8.050;2022-07-19T01:52:39;3.97;;;2.13;;
35276;SDS011;21401;50.878;8.050;2022-07-19T01:55:05;5.35;;;2.60;;
35276;SDS011;21401;50.878;8.050;2022-07-19T01:57:32;4.38;;;2.55;;
35276;SDS011;21401;50.878;8.050;2022-07-19T01:59:57;5.28;;;2.67;;
35276;SDS011;21401;50.878;8.050;2022-07-19T02:02:23;7.88;;;2.75;;
35276;SDS011;21401;50.878;8.050;2022-07-19T02:04:49;8.35;;;2.83;;
35276;SDS011;21401;50.878;8.050;2022-07-19T02:07:14;6.82;;;2.53;;
35276;SDS011;21401;50.878;8.050;2022-07-19T02:09:40;8.13;;;2.50;;
35276;SDS011;21401;50.878;8.050;2022-07-19T02:12:06;5.55;;;2.28;;
35276;SDS011;21401;50.878;8.050;2022-07-19T02:14:31;5.57;;;3.08;;
35276;SDS011;21401;50.878;8.050;2022-07-19T02:16:57;3.38;;;2.70;;
35276;SDS011;21401;50.878;8.050;2022-07-19T02:19:23;4.60;;;2.70;;
35276;SDS011;21401;50.878;8.050;2022-07-19T02:21:48;4.03;;;2.33;;
35276;SDS011;21401;50.878;8.050;2022-07-19T02:24:14;2.65;;;2.13;;
35276;SDS011;21401;50.878;8.050;2022-07-19T02:26:42;4.22;;;2.45;;
35276;SDS011;21401;50.878;8.050;2022-07-19T02:29:07;6.25;;;2.47;;
35276;SDS011;21401;50.878;8.050;2022-07-19T02:31:34;3.92;;;2.50;;
35276;SDS011;21401;50.878;8.050;2022-07-19T02:33:59;4.80;;;2.28;;
35276;SDS011;21401;50.878;8.050;2022-07-19T02:36:27;3.70;;;2.50;;
35276;SDS011;21401;50.878;8.050;2022-07-19T02:38:53;4.90;;;2.17;;
35276;SDS011;21401;50.878;8.050;2022-07-19T02:41:23;7.55;;;2.50;;
35276;SDS011;21401;50.878;8.050;2022-07-19T02:43:48;6.10;;;2.67;;
35276;SDS011;21401;50.878;8.050;2022-07-19T02:46:14;4.18;;;2.30;;
35276;SDS011;21401;50.878;8.050;2022-07-19T02:48:39;3.58;;;2.30;;
35276;SDS011;21401;50.878;8.050;2022-07-19T02:51:09;6.93;;;2.22;;
35276;SDS011;21401;50.878;8.050;2022-07-19T02:53:36;5.20;;;2.45;;
35276;SDS011;21401;50.878;8.050;2022-07-19T02:56:01;4.97;;;3.05;;
35276;SDS011;21401;50.878;8.050;2022-07-19T02:58:27;4.05;;;2.53;;
35276;SDS011;21401;50.878;8.050;2022-07-19T03:00:53;5.57;;;2.70;;
35276;SDS011;21401;50.878;8.050;2022-07-19T03:03:19;3.75;;;2.50;;
35276;SDS011;21401;50.878;8.050;2022-07-19T03:06:03;3.17;;;2.40;;
35276;SDS011;21401;50.878;8.050;2022-07-19T03:08:29;4.47;;;2.80;;
35276;SDS011;21401;50.878;8.050;2022-07-19T03:10:54;6.20;;;3.03;;
35276;SDS011;21401;50.878;8.050;2022-07-19T03:13:22;4.35;;;2.42;;
35276;SDS011;21401;50.878;8.050;2022-07-19T03:15:48;3.47;;;2.55;;
35276;SDS011;21401;50.878;8.050;2022-07-19T03:18:13;4.60;;;2.85;;
35276;SDS011;21401;50.878;8.050;2022-07-19T03:20:41;7.22;;;4.38;;
35276;SDS011;21401;50.878;8.050;2022-07-19T03:23:07;5.90;;;3.72;;
35276;SDS011;21401;50.878;8.050;2022-07-19T03:25:32;4.32;;;2.83;;
35276;SDS011;21401;50.878;8.050;2022-07-19T03:28:00;3.92;;;2.38;;
35276;SDS011;21401;50.878;8.050;2022-07-19T03:30:26;4.75;;;2.58;;
35276;SDS011;21401;50.878;8.050;2022-07-19T03:32:52;4.50;;;2.47;;
35276;SDS011;21401;50.878;8.050;2022-07-19T03:35:20;4.90;;;2.42;;
35276;SDS011;21401;50.878;8.050;2022-07-19T03:37:46;5.15;;;2.08;;
35276;SDS011;21401;50.878;8.050;2022-07-19T03:40:12;4.90;;;2.30;;
35276;SDS011;21401;50.878;8.050;2022-07-19T03:42:38;3.80;;;3.33;;
35276;SDS011;21401;50.878;8.050;2022-07-19T03:45:04;6.45;;;3.00;;
35276;SDS011;21401;50.878;8.050;2022-07-19T03:47:30;5.30;;;3.30;;
35276;SDS011;21401;50.878;8.050;2022-07-19T03:49:56;5.25;;;3.63;;
35276;SDS011;21401;50.878;8.050;2022-07-19T03:52:24;5.70;;;2.80;;
35276;SDS011;21401;50.878;8.050;2022-07-19T03:54:50;4.32;;;2.80;;
35276;SDS011;21401;50.878;8.050;2022-07-19T03:57:16;5.82;;;3.20;;
35276;SDS011;21401;50.878;8.050;2022-07-19T03:59:41;4.25;;;2.63;;
35276;SDS011;21401;50.878;8.050;2022-07-19T04:02:07;7.18;;;2.85;;
35276;SDS011;21401;50.878;8.050;2022-07-19T04:04:33;5.07;;;2.92;;
35276;SDS011;21401;50.878;8.050;2022-07-19T04:06:58;4.53;;;2.70;;
35276;SDS011;21401;50.878;8.050;2022-07-19T04:09:26;3.92;;;2.83;;
35276;SDS011;21401;50.878;8.050;2022-07-19T04:11:52;6.93;;;2.95;;
35276;SDS011;21401;50.878;8.050;2022-07-19T04:14:19;6.55;;;2.70;;
35276;SDS011;21401;50.878;8.050;2022-07-19T04:16:50;6.00;;;2.92;;
35276;SDS011;21401;50.878;8.050;2022-07-19T04:19:18;10.32;;;4.03;;
35276;SDS011;21401;50.878;8.050;2022-07-19T04:21:43;6.70;;;2.97;;
35276;SDS011;21401;50.878;8.050;2022-07-19T04:24:11;4.00;;;2.60;;
35276;SDS011;21401;50.878;8.050;2022-07-19T04:26:36;6.80;;;3.28;;
35276;SDS011;21401;50.878;8.050;2022-07-19T04:29:03;8.15;;;2.78;;
35276;SDS011;21401;50.878;8.050;2022-07-19T04:31:31;7.43;;;2.92;;
35276;SDS011;21401;50.878;8.050;2022-07-19T04:33:56;3.95;;;2.63;;
35276;SDS011;21401;50.878;8.050;2022-07-19T04:36:24;3.95;;;2.72;;
35276;SDS011;21401;50.878;8.050;2022-07-19T04:38:52;5.43;;;2.50;;
35276;SDS011;21401;50.878;8.050;2022-07-19T04:41:18;5.97;;;3.05;;
35276;SDS011;21401;50.878;8.050;2022-07-19T04:43:43;3.47;;;2.45;;
35276;SDS011;21401;50.878;8.050;2022-07-19T04:46:11;5.45;;;3.00;;
35276;SDS011;21401;50.878;8.050;2022-07-19T04:48:37;6.97;;;3.25;;
35276;SDS011;21401;50.878;8.050;2022-07-19T04:51:02;5.55;;;2.83;;
35276;SDS011;21401;50.878;8.050;2022-07-19T04:53:30;10.13;;;3.53;;
35276;SDS011;21401;50.878;8.050;2022-07-19T04:55:56;7.10;;;3.20;;
35276;SDS011;21401;50.878;8.050;2022-07-19T04:58:22;9.27;;;3.58;;
35276;SDS011;21401;50.878;8.050;2022-07-19T05:00:47;6.68;;;3.03;;
35276;SDS011;21401;50.878;8.050;2022-07-19T05:03:15;6.03;;;3.17;;
35276;SDS011;21401;50.878;8.050;2022-07-19T05:05:41;7.43;;;3.17;;
35276;SDS011;21401;50.878;8.050;2022-07-19T05:08:06;4.25;;;2.60;;
35276;SDS011;21401;50.878;8.050;2022-07-19T05:10:35;7.57;;;3.35;;
35276;SDS011;21401;50.878;8.050;2022-07-19T05:13:01;5.25;;;2.75;;
35276;SDS011;21401;50.878;8.050;2022-07-19T05:15:29;7.13;;;2.67;;
35276;SDS011;21401;50.878;8.050;2022-07-19T05:17:57;4.13;;;2.75;;
35276;SDS011;21401;50.878;8.050;2022-07-19T05:20:22;6.25;;;2.70;;
35276;SDS011;21401;50.878;8.050;2022-07-19T05:22:48;5.63;;;2.72;;
35276;SDS011;21401;50.878;8.050;2022-07-19T05:25:14;5.97;;;2.67;;
35276;SDS011;21401;50.878;8.050;2022-07-19T05:27:41;5.45;;;2.80;;
35276;SDS011;21401;50.878;8.050;2022-07-19T05:30:08;5.93;;;2.78;;
35276;SDS011;21401;50.878;8.050;2022-07-19T05:32:38;5.00;;;2.58;;
35276;SDS011;21401;50.878;8.050;2022-07-19T05:35:04;7.93;;;3.00;;
35276;SDS011;21401;50.878;8.050;2022-07-19T05:37:32;7.15;;;3.88;;
35276;SDS011;21401;50.878;8.050;2022-07-19T05:39:57;7.20;;;2.97;;
35276;SDS011;21401;50.878;8.050;2022-07-19T05:42:25;5.55;;;3.13;;
35276;SDS011;21401;50.878;8.050;2022-07-19T05:44:53;5.03;;;3.13;;
35276;SDS011;21401;50.878;8.050;2022-07-19T05:47:19;8.10;;;3.17;;
35276;SDS011;21401;50.878;8.050;2022-07-19T05:49:44;5.25;;;3.30;;
35276;SDS011;21401;50.878;8.050;2022-07-19T05:52:10;8.40;;;3.30;;
35276;SDS011;21401;50.878;8.050;2022-07-19T05:54:36;4.25;;;3.05;;
35276;SDS011;21401;50.878;8.050;2022-07-19T05:57:04;5.90;;;2.90;;
35276;SDS011;21401;50.878;8.050;2022-07-19T05:59:31;8.02;;;2.92;;
35276;SDS011;21401;50.878;8.050;2022-07-19T06:02:00;6.07;;;2.63;;
35276;SDS011;21401;50.878;8.050;2022-07-19T06:04:26;8.43;;;2.92;;
35276;SDS011;21401;50.878;8.050;2022-07-19T06:06:52;6.95;;;3.17;;
35276;SDS011;21401;50.878;8.050;2022-07-19T06:09:17;4.85;;;2.58;;
35276;SDS011;21401;50.878;8.050;2022-07-19T06:11:43;7.68;;;3.08;;
35276;SDS011;21401;50.878;8.050;2022-07-19T06:14:08;7.57;;;2.97;;
35276;SDS011;21401;50.878;8.050;2022-07-19T06:16:35;7.65;;;3.22;;
35276;SDS011;21401;50.878;8.050;2022-07-19T06:19:05;6.82;;;2.95;;
35276;SDS011;21401;50.878;8.050;2022-07-19T06:21:32;4.95;;;3.38;;
35276;SDS011;21401;50.878;8.050;2022-07-19T06:24:00;6.15;;;2.97;;
35276;SDS011;21401;50.878;8.050;2022-07-19T06:26:26;7.13;;;2.83;;
35276;SDS011;21401;50.878;8.050;2022-07-19T06:28:52;9.07;;;2.95;;
35276;SDS011;21401;50.878;8.050;2022-07-19T06:31:20;9.57;;;3.30;;
35276;SDS011;21401;50.878;8.050;2022-07-19T06:33:49;5.97;;;2.58;;
35276;SDS011;21401;50.878;8.050;2022-07-19T06:36:15;4.93;;;2.25;;
35276;SDS011;21401;50.878;8.050;2022-07-19T06:38:42;5.88;;;2.97;;
35276;SDS011;21401;50.878;8.050;2022-07-19T06:41:08;6.65;;;2.58;;
35276;SDS011;21401;50.878;8.050;2022-07-19T06:43:34;9.70;;;2.97;;
35276;SDS011;21401;50.878;8.050;2022-07-19T06:46:00;4.75;;;3.20;;
35276;SDS011;21401;50.878;8.050;2022-07-19T06:48:26;3.53;;;2.45;;
35276;SDS011;21401;50.878;8.050;2022-07-19T06:50:51;7.50;;;2.88;;
35276;SDS011;21401;50.878;8.050;2022-07-19T06:53:20;6.57;;;3.10;;
35276;SDS011;21401;50.878;8.050;2022-07-19T06:55:46;4.63;;;2.40;;
35276;SDS011;21401;50.878;8.050;2022-07-19T06:58:12;4.15;;;2.80;;
35276;SDS011;21401;50.878;8.050;2022-07-19T07:00:37;7.22;;;2.42;;
35276;SDS011;21401;50.878;8.050;2022-07-19T07:03:03;7.63;;;2.55;;
35276;SDS011;21401;50.878;8.050;2022-07-19T07:05:32;6.25;;;2.45;;
35276;SDS011;21401;50.878;8.050;2022-07-19T07:07:57;5.13;;;2.90;;
35276;SDS011;21401;50.878;8.050;2022-07-19T07:10:26;7.07;;;2.65;;
35276;SDS011;21401;50.878;8.050;2022-07-19T07:12:52;6.00;;;2.90;;
35276;SDS011;21401;50.878;8.050;2022-07-19T07:15:18;8.25;;;2.58;;
35276;SDS011;21401;50.878;8.050;2022-07-19T07:17:44;9.35;;;2.55;;
35276;SDS011;21401;50.878;8.050;2022-07-19T07:20:10;4.38;;;2.47;;
35276;SDS011;21401;50.878;8.050;2022-07-19T07:22:36;5.95;;;2.58;;
35276;SDS011;21401;50.878;8.050;2022-07-19T07:25:02;10.57;;;2.92;;
35276;SDS011;21401;50.878;8.050;2022-07-19T07:27:29;11.63;;;2.72;;
35276;SDS011;21401;50.878;8.050;2022-07-19T07:29:54;6.97;;;2.63;;
35276;SDS011;21401;50.878;8.050;2022-07-19T07:32:20;7.07;;;2.45;;
35276;SDS011;21401;50.878;8.050;2022-07-19T07:34:46;5.32;;;2.47;;
35276;SDS011;21401;50.878;8.050;2022-07-19T07:37:14;6.78;;;2.70;;
35276;SDS011;21401;50.878;8.050;2022-07-19T07:39:39;8.35;;;2.50;;
35276;SDS011;21401;50.878;8.050;2022-07-19T07:42:05;7.70;;;2.40;;
35276;SDS011;21401;50.878;8.050;2022-07-19T07:44:33;7.68;;;2.40;;
35276;SDS011;21401;50.878;8.050;2022-07-19T07:46:59;6.70;;;2.63;;
35276;SDS011;21401;50.878;8.050;2022-07-19T07:49:25;5.63;;;2.42;;
35276;SDS011;21401;50.878;8.050;2022-07-19T07:51:53;2.70;;;2.20;;
35276;SDS011;21401;50.878;8.050;2022-07-19T07:54:19;10.68;;;3.08;;
35276;SDS011;21401;50.878;8.050;2022-07-19T07:56:48;7.90;;;2.80;;
35276;SDS011;21401;50.878;8.050;2022-07-19T07:59:18;5.72;;;2.63;;
35276;SDS011;21401;50.878;8.050;2022-07-19T08:01:44;8.65;;;2.50;;
35276;SDS011;21401;50.878;8.050;2022-07-19T08:04:10;4.82;;;1.42;;
35276;SDS011;21401;50.878;8.050;2022-07-19T08:06:38;4.95;;;1.73;;
35276;SDS011;21401;50.878;8.050;2022-07-19T08:09:04;4.75;;;1.75;;
35276;SDS011;21401;50.878;8.050;2022-07-19T08:11:30;10.18;;;1.50;;
35276;SDS011;21401;50.878;8.050;2022-07-19T08:13:56;7.50;;;1.70;;
35276;SDS011;21401;50.878;8.050;2022-07-19T08:16:22;6.07;;;1.70;;
35276;SDS011;21401;50.878;8.050;2022-07-19T08:18:47;5.25;;;1.73;;
35276;SDS011;21401;50.878;8.050;2022-07-19T08:21:15;4.32;;;1.33;;
35276;SDS011;21401;50.878;8.050;2022-07-19T08:23:41;7.07;;;1.50;;
35276;SDS011;21401;50.878;8.050;2022-07-19T08:26:09;5.15;;;1.50;;
35276;SDS011;21401;50.878;8.050;2022-07-19T08:28:35;4.35;;;1.63;;
35276;SDS011;21401;50.878;8.050;2022-07-19T08:31:05;5.60;;;1.45;;
35276;SDS011;21401;50.878;8.050;2022-07-19T08:33:31;7.70;;;1.63;;
35276;SDS011;21401;50.878;8.050;2022-07-19T08:35:59;7.15;;;1.58;;
35276;SDS011;21401;50.878;8.050;2022-07-19T08:38:24;4.75;;;1.33;;
35276;SDS011;21401;50.878;8.050;2022-07-19T08:40:52;6.38;;;1.60;;
35276;SDS011;21401;50.878;8.050;2022-07-19T08:43:18;4.18;;;1.70;;
35276;SDS011;21401;50.878;8.050;2022-07-19T08:45:46;4.97;;;1.50;;
35276;SDS011;21401;50.878;8.050;2022-07-19T08:48:12;3.55;;;1.42;;
35276;SDS011;21401;50.878;8.050;2022-07-19T08:50:38;3.03;;;1.50;;
35276;SDS011;21401;50.878;8.050;2022-07-19T08:53:05;3.67;;;1.40;;
35276;SDS011;21401;50.878;8.050;2022-07-19T08:55:30;2.50;;;1.60;;
35276;SDS011;21401;50.878;8.050;2022-07-19T08:57:59;5.82;;;1.40;;
35276;SDS011;21401;50.878;8.050;2022-07-19T09:00:28;5.07;;;1.50;;
35276;SDS011;21401;50.878;8.050;2022-07-19T09:05:22;6.07;;;1.50;;
35276;SDS011;21401;50.878;8.050;2022-07-19T09:10:36;3.08;;;1.40;;
35276;SDS011;21401;50.878;8.050;2022-07-19T09:13:09;6.10;;;1.75;;
35276;SDS011;21401;50.878;8.050;2022-07-19T09:20:39;5.45;;;1.65;;
35276;SDS011;21401;50.878;8.050;2022-07-19T09:23:05;5.22;;;1.85;;
35276;SDS011;21401;50.878;8.050;2022-07-19T09:25:35;5.78;;;1.60;;
35276;SDS011;21401;50.878;8.050;2022-07-19T09:28:02;2.33;;;1.70;;
35276;SDS011;21401;50.878;8.050;2022-07-19T09:30:32;3.20;;;1.42;;
35276;SDS011;21401;50.878;8.050;2022-07-19T09:33:09;3.85;;;1.38;;
35276;SDS011;21401;50.878;8.050;2022-07-19T09:35:48;6.50;;;1.70;;
35276;SDS011;21401;50.878;8.050;2022-07-19T09:41:08;5.97;;;1.80;;
35276;SDS011;21401;50.878;8.050;2022-07-19T09:43:57;5.13;;;2.00;;
35276;SDS011;21401;50.878;8.050;2022-07-19T09:46:34;3.75;;;1.40;;
35276;SDS011;21401;50.878;8.050;2022-07-19T09:49:13;5.13;;;1.70;;
35276;SDS011;21401;50.878;8.050;2022-07-19T09:51:43;8.88;;;1.83;;
35276;SDS011;21401;50.878;8.050;2022-07-19T09:54:13;8.45;;;1.90;;
35276;SDS011;21401;50.878;8.050;2022-07-19T09:56:41;2.67;;;1.42;;
35276;SDS011;21401;50.878;8.050;2022-07-19T09:59:08;4.00;;;1.40;;
35276;SDS011;21401;50.878;8.050;2022-07-19T10:01:35;6.68;;;1.90;;
35276;SDS011;21401;50.878;8.050;2022-07-19T10:04:07;5.40;;;1.80;;
35276;SDS011;21401;50.878;8.050;2022-07-19T10:06:39;2.90;;;1.50;;
35276;SDS011;21401;50.878;8.050;2022-07-19T10:09:06;4.85;;;1.92;;
35276;SDS011;21401;50.878;8.050;2022-07-19T10:11:36;2.90;;;1.63;;
35276;SDS011;21401;50.878;8.050;2022-07-19T10:14:02;6.47;;;1.58;;
35276;SDS011;21401;50.878;8.050;2022-07-19T10:22:04;4.10;;;1.65;;
35276;SDS011;21401;50.878;8.050;2022-07-19T10:27:08;5.90;;;1.50;;
35276;SDS011;21401;50.878;8.050;2022-07-19T10:29:36;4.07;;;1.83;;
35276;SDS011;21401;50.878;8.050;2022-07-19T10:42:12;3.50;;;1.65;;
35276;SDS011;21401;50.878;8.050;2022-07-19T10:50:06;2.80;;;1.40;;
35276;SDS011;21401;50.878;8.050;2022-07-19T10:57:53;3.65;;;1.75;;
35276;SDS011;21401;50.878;8.050;2022-07-19T11:00:46;3.92;;;1.90;;
35276;SDS011;21401;50.878;8.050;2022-07-19T11:08:15;5.05;;;1.60;;
35276;SDS011;21401;50.878;8.050;2022-07-19T11:10:42;7.40;;;1.85;;
35276;SDS011;21401;50.878;8.050;2022-07-19T11:13:08;4.68;;;1.77;;
35276;SDS011;21401;50.878;8.050;2022-07-19T11:15:36;6.40;;;2.00;;
35276;SDS011;21401;50.878;8.050;2022-07-19T11:18:03;4.15;;;1.80;;
35276;SDS011;21401;50.878;8.050;2022-07-19T11:20:32;7.05;;;1.95;;
35276;SDS011;21401;50.878;8.050;2022-07-19T11:22:59;3.30;;;2.00;;
35276;SDS011;21401;50.878;8.050;2022-07-19T11:25:27;5.03;;;2.60;;
35276;SDS011;21401;50.878;8.050;2022-07-19T11:27:54;4.47;;;1.95;;
35276;SDS011;21401;50.878;8.050;2022-07-19T11:30:24;5.15;;;1.92;;
35276;SDS011;21401;50.878;8.050;2022-07-19T11:32:58;4.10;;;1.83;;
35276;SDS011;21401;50.878;8.050;2022-07-19T11:35:28;5.53;;;1.92;;
35276;SDS011;21401;50.878;8.050;2022-07-19T11:37:57;6.13;;;2.05;;
35276;SDS011;21401;50.878;8.050;2022-07-19T11:40:24;3.95;;;1.70;;
35276;SDS011;21401;50.878;8.050;2022-07-19T11:42:58;4.82;;;2.00;;
35276;SDS011;21401;50.878;8.050;2022-07-19T11:45:24;7.05;;;2.08;;
35276;SDS011;21401;50.878;8.050;2022-07-19T11:47:55;8.40;;;2.00;;
35276;SDS011;21401;50.878;8.050;2022-07-19T11:50:22;4.60;;;1.80;;
35276;SDS011;21401;50.878;8.050;2022-07-19T11:55:20;8.18;;;2.10;;
35276;SDS011;21401;50.878;8.050;2022-07-19T11:57:51;8.35;;;1.92;;
35276;SDS011;21401;50.878;8.050;2022-07-19T12:00:28;4.07;;;2.05;;
35276;SDS011;21401;50.878;8.050;2022-07-19T12:05:32;4.25;;;2.33;;
35276;SDS011;21401;50.878;8.050;2022-07-19T12:08:00;7.07;;;2.53;;
35276;SDS011;21401;50.878;8.050;2022-07-19T12:10:46;4.50;;;1.90;;
35276;SDS011;21401;50.878;8.050;2022-07-19T12:13:34;3.30;;;2.08;;
35276;SDS011;21401;50.878;8.050;2022-07-19T12:16:10;5.97;;;2.28;;
35276;SDS011;21401;50.878;8.050;2022-07-19T12:18:56;2.92;;;2.00;;
35276;SDS011;21401;50.878;8.050;2022-07-19T12:21:38;2.90;;;1.77;;
35276;SDS011;21401;50.878;8.050;2022-07-19T12:24:11;2.55;;;1.83;;
35276;SDS011;21401;50.878;8.050;2022-07-19T12:32:11;7.28;;;2.03;;
35276;SDS011;21401;50.878;8.050;2022-07-19T12:34:54;11.57;;;2.42;;
35276;SDS011;21401;50.878;8.050;2022-07-19T12:45:35;4.88;;;2.28;;
35276;SDS011;21401;50.878;8.050;2022-07-19T12:48:04;3.67;;;1.95;;
35276;SDS011;21401;50.878;8.050;2022-07-19T12:50:39;6.35;;;1.90;;
35276;SDS011;21401;50.878;8.050;2022-07-19T12:53:11;5.55;;;2.13;;
35276;SDS011;21401;50.878;8.050;2022-07-19T12:55:38;9.40;;;2.28;;
35276;SDS011;21401;50.878;8.050;2022-07-19T12:58:06;7.18;;;2.28;;
35276;SDS011;21401;50.878;8.050;2022-07-19T13:00:41;5.53;;;1.80;;
35276;SDS011;21401;50.878;8.050;2022-07-19T13:03:11;6.68;;;1.70;;
35276;SDS011;21401;50.878;8.050;2022-07-19T13:05:37;9.27;;;1.90;;
35276;SDS011;21401;50.878;8.050;2022-07-19T13:08:04;6.65;;;1.95;;
35276;SDS011;21401;50.878;8.050;2022-07-19T13:10:30;6.88;;;2.05;;
35276;SDS011;21401;50.878;8.050;2022-07-19T13:12:56;11.07;;;2.85;;
35276;SDS011;21401;50.878;8.050;2022-07-19T13:15:22;6.82;;;2.20;;
35276;SDS011;21401;50.878;8.050;2022-07-19T13:17:49;6.75;;;2.00;;
35276;SDS011;21401;50.878;8.050;2022-07-19T13:20:15;4.90;;;2.03;;
35276;SDS011;21401;50.878;8.050;2022-07-19T13:22:41;10.43;;;2.22;;
35276;SDS011;21401;50.878;8.050;2022-07-19T13:25:10;5.47;;;2.00;;
35276;SDS011;21401;50.878;8.050;2022-07-19T13:27:39;6.60;;;2.55;;
35276;SDS011;21401;50.878;8.050;2022-07-19T13:30:07;5.00;;;1.92;;
35276;SDS011;21401;50.878;8.050;2022-07-19T13:32:33;4.15;;;1.80;;
35276;SDS011;21401;50.878;8.050;2022-07-19T13:35:01;6.60;;;2.13;;
35276;SDS011;21401;50.878;8.050;2022-07-19T13:37:32;4.72;;;1.98;;
35276;SDS011;21401;50.878;8.050;2022-07-19T13:39:59;4.50;;;1.60;;
35276;SDS011;21401;50.878;8.050;2022-07-19T13:42:25;8.85;;;2.17;;
35276;SDS011;21401;50.878;8.050;2022-07-19T13:44:52;3.72;;;1.70;;
35276;SDS011;21401;50.878;8.050;2022-07-19T13:47:19;3.90;;;1.80;;
35276;SDS011;21401;50.878;8.050;2022-07-19T13:49:45;5.68;;;1.95;;
35276;SDS011;21401;50.878;8.050;2022-07-19T13:52:11;3.80;;;1.90;;
35276;SDS011;21401;50.878;8.050;2022-07-19T13:54:39;7.35;;;2.28;;
35276;SDS011;21401;50.878;8.050;2022-07-19T13:57:10;4.28;;;2.00;;
35276;SDS011;21401;50.878;8.050;2022-07-19T13:59:35;6.13;;;2.78;;
35276;SDS011;21401;50.878;8.050;2022-07-19T14:02:07;4.88;;;2.30;;
35276;SDS011;21401;50.878;8.050;2022-07-19T14:04:36;4.82;;;2.10;;
35276;SDS011;21401;50.878;8.050;2022-07-19T14:07:02;6.90;;;2.00;;
35276;SDS011;21401;50.878;8.050;2022-07-19T14:09:30;5.38;;;2.38;;
35276;SDS011;21401;50.878;8.050;2022-07-19T14:11:55;3.78;;;2.00;;
35276;SDS011;21401;50.878;8.050;2022-07-19T14:14:24;8.02;;;1.95;;
35276;SDS011;21401;50.878;8.050;2022-07-19T14:16:49;4.63;;;1.85;;
35276;SDS011;21401;50.878;8.050;2022-07-19T14:19:15;6.72;;;1.80;;
35276;SDS011;21401;50.878;8.050;2022-07-19T14:21:48;4.60;;;2.10;;
35276;SDS011;21401;50.878;8.050;2022-07-19T14:24:25;3.97;;;2.25;;
35276;SDS011;21401;50.878;8.050;2022-07-19T14:26:53;5.95;;;2.00;;
35276;SDS011;21401;50.878;8.050;2022-07-19T14:29:21;3.50;;;1.77;;
35276;SDS011;21401;50.878;8.050;2022-07-19T14:31:47;2.88;;;2.00;;
35276;SDS011;21401;50.878;8.050;2022-07-19T14:34:13;4.32;;;1.70;;
35276;SDS011;21401;50.878;8.050;2022-07-19T14:36:41;3.72;;;1.90;;
35276;SDS011;21401;50.878;8.050;2022-07-19T14:39:07;3.92;;;2.08;;
35276;SDS011;21401;50.878;8.050;2022-07-19T14:41:36;3.42;;;1.95;;
35276;SDS011;21401;50.878;8.050;2022-07-19T14:44:02;3.92;;;1.40;;
35276;SDS011;21401;50.878;8.050;2022-07-19T14:46:31;5.70;;;2.38;;
35276;SDS011;21401;50.878;8.050;2022-07-19T14:48:59;6.95;;;2.08;;
35276;SDS011;21401;50.878;8.050;2022-07-19T14:51:27;4.60;;;1.70;;
35276;SDS011;21401;50.878;8.050;2022-07-19T14:53:55;8.30;;;1.83;;
35276;SDS011;21401;50.878;8.050;2022-07-19T14:56:26;7.57;;;1.83;;
35276;SDS011;21401;50.878;8.050;2022-07-19T14:58:52;3.40;;;2.42;;
35276;SDS011;21401;50.878;8.050;2022-07-19T15:01:27;6.28;;;2.00;;
35276;SDS011;21401;50.878;8.050;2022-07-19T15:03:53;6.05;;;2.70;;
35276;SDS011;21401;50.878;8.050;2022-07-19T15:06:27;7.95;;;2.53;;
35276;SDS011;21401;50.878;8.050;2022-07-19T15:08:58;9.70;;;2.50;;
35276;SDS011;21401;50.878;8.050;2022-07-19T15:11:24;5.70;;;2.17;;
35276;SDS011;21401;50.878;8.050;2022-07-19T15:13:50;7.28;;;2.13;;
35276;SDS011;21401;50.878;8.050;2022-07-19T15:16:15;7.70;;;1.92;;
35276;SDS011;21401;50.878;8.050;2022-07-19T15:18:43;4.93;;;1.95;;
35276;SDS011;21401;50.878;8.050;2022-07-19T15:21:09;7.82;;;2.15;;
35276;SDS011;21401;50.878;8.050;2022-07-19T15:23:35;3.85;;;2.03;;
35276;SDS011;21401;50.878;8.050;2022-07-19T15:26:08;5.72;;;2.30;;
35276;SDS011;21401;50.878;8.050;2022-07-19T15:28:34;3.95;;;1.88;;
35276;SDS011;21401;50.878;8.050;2022-07-19T15:31:01;4.35;;;2.20;;
35276;SDS011;21401;50.878;8.050;2022-07-19T15:33:30;6.30;;;1.88;;
35276;SDS011;21401;50.878;8.050;2022-07-19T15:35:56;5.10;;;1.70;;
35276;SDS011;21401;50.878;8.050;2022-07-19T15:38:22;6.88;;;1.90;;
35276;SDS011;21401;50.878;8.050;2022-07-19T15:40:48;4.05;;;1.80;;
35276;SDS011;21401;50.878;8.050;2022-07-19T15:43:17;4.43;;;1.95;;
35276;SDS011;21401;50.878;8.050;2022-07-19T15:45:48;3.22;;;1.63;;
35276;SDS011;21401;50.878;8.050;2022-07-19T15:48:14;4.53;;;1.65;;
35276;SDS011;21401;50.878;8.050;2022-07-19T15:50:39;6.30;;;2.20;;
35276;SDS011;21401;50.878;8.050;2022-07-19T15:53:10;6.47;;;2.10;;
35276;SDS011;21401;50.878;8.050;2022-07-19T15:55:36;8.45;;;1.80;;
35276;SDS011;21401;50.878;8.050;2022-07-19T15:58:02;4.90;;;2.10;;